createdAt,value
2017-08-16T00:00:20.542Z,1017.79
2017-08-16T00:01:30.070Z,1017.81
2017-08-16T00:02:39.599Z,1017.77
2017-08-16T00:03:48.632Z,1017.8
2017-08-16T00:04:58.167Z,1017.73
2017-08-16T00:06:07.380Z,1017.75
2017-08-16T00:07:16.585Z,1017.75
2017-08-16T00:08:26.116Z,1017.72
2017-08-16T00:09:35.698Z,1017.73
2017-08-16T00:10:44.911Z,1017.8
2017-08-16T00:11:54.438Z,1017.76
2017-08-16T00:13:03.647Z,1017.71
2017-08-16T00:14:13.495Z,1017.75
2017-08-16T00:15:23.647Z,1017.74
2017-08-16T00:16:32.528Z,1017.77
2017-08-16T00:17:42.056Z,1017.76
2017-08-16T00:18:51.919Z,1017.73
2017-08-16T00:20:02.109Z,1017.74
2017-08-16T00:21:11.646Z,1017.72
2017-08-16T00:22:20.849Z,1017.77
2017-08-16T00:23:30.700Z,1017.77
2017-08-16T00:24:39.582Z,1017.8
2017-08-16T00:25:49.109Z,1017.74
2017-08-16T00:26:58.516Z,1017.81
2017-08-16T00:28:08.042Z,1017.8
2017-08-16T00:29:17.249Z,1017.81
2017-08-16T00:30:26.132Z,1017.8
2017-08-16T00:31:35.339Z,1017.79
2017-08-16T00:32:44.475Z,1017.76
2017-08-16T00:33:54.013Z,1017.78
2017-08-16T00:35:03.863Z,1017.8
2017-08-16T00:36:13.394Z,1017.86
2017-08-16T00:37:23.572Z,1017.84
2017-08-16T00:38:33.408Z,1017.81
2017-08-16T00:39:42.937Z,1017.81
2017-08-16T00:40:52.793Z,1017.79
2017-08-16T00:42:02.974Z,1017.81
2017-08-16T00:43:12.505Z,1017.81
2017-08-16T00:44:22.658Z,1017.88
2017-08-16T00:45:31.862Z,1017.84
2017-08-16T00:46:41.712Z,1017.84
2017-08-16T00:47:51.244Z,1017.82
2017-08-16T00:49:00.772Z,1017.84
2017-08-16T00:50:11.095Z,1017.87
2017-08-16T00:51:20.945Z,1017.83
2017-08-16T00:52:30.475Z,1017.89
2017-08-16T00:53:40.327Z,1017.84
2017-08-16T00:54:50.183Z,1017.87
2017-08-16T00:56:00.474Z,1017.91
2017-08-16T00:57:10.009Z,1017.97
2017-08-16T00:58:19.215Z,1018.02
2017-08-16T00:59:28.746Z,1017.98
2017-08-16T01:00:38.603Z,1018
2017-08-16T01:01:47.960Z,1018.03
2017-08-16T01:02:57.166Z,1018.05
2017-08-16T01:04:06.695Z,1018.09
2017-08-16T01:05:15.906Z,1018.1
2017-08-16T01:06:25.433Z,1018.04
2017-08-16T01:07:34.789Z,1018.12
2017-08-16T01:08:43.993Z,1018.08
2017-08-16T01:09:53.842Z,1018.1
2017-08-16T01:11:03.379Z,1018.11
2017-08-16T01:12:13.229Z,1018.12
2017-08-16T01:13:23.183Z,1018.11
2017-08-16T01:14:32.394Z,1018.15
2017-08-16T01:15:41.278Z,1018.13
2017-08-16T01:16:50.811Z,1018.19
2017-08-16T01:18:00.662Z,1018.16
2017-08-16T01:19:10.018Z,1018.22
2017-08-16T01:20:19.223Z,1018.21
2017-08-16T01:21:28.754Z,1018.2
2017-08-16T01:22:38.930Z,1018.24
2017-08-16T01:23:48.786Z,1018.25
2017-08-16T01:24:58.141Z,1018.26
2017-08-16T01:26:07.994Z,1018.28
2017-08-16T01:27:17.845Z,1018.28
2017-08-16T01:28:27.696Z,1018.32
2017-08-16T01:29:36.900Z,1018.3
2017-08-16T01:30:46.680Z,1018.34
2017-08-16T01:31:56.861Z,1018.34
2017-08-16T01:33:06.071Z,1018.33
2017-08-16T01:34:15.276Z,1018.31
2017-08-16T01:35:24.492Z,1018.3
2017-08-16T01:36:33.700Z,1018.35
2017-08-16T01:37:42.903Z,1018.34
2017-08-16T01:38:52.757Z,1018.33
2017-08-16T01:40:02.611Z,1018.3
2017-08-16T01:41:12.142Z,1018.3
2017-08-16T01:42:21.994Z,1018.28
2017-08-16T01:43:31.544Z,1018.29
2017-08-16T01:44:41.086Z,1018.36
2017-08-16T01:45:50.613Z,1018.36
2017-08-16T01:47:00.469Z,1018.38
2017-08-16T01:48:10.202Z,1018.4
2017-08-16T01:49:19.085Z,1018.36
2017-08-16T01:50:28.292Z,1018.38
2017-08-16T01:51:37.497Z,1018.44
2017-08-16T01:52:47.372Z,1018.42
2017-08-16T01:53:57.226Z,1018.4
2017-08-16T01:55:06.431Z,1018.39
2017-08-16T01:56:15.637Z,1018.42
2017-08-16T01:57:25.168Z,1018.4
2017-08-16T01:58:35.018Z,1018.41
2017-08-16T01:59:44.474Z,1018.4
2017-08-16T02:00:54.010Z,1018.4
2017-08-16T02:02:03.552Z,1018.45
2017-08-16T02:03:12.759Z,1018.39
2017-08-16T02:04:22.612Z,1018.38
2017-08-16T02:05:32.239Z,1018.42
2017-08-16T02:06:42.090Z,1018.4
2017-08-16T02:07:51.941Z,1018.38
2017-08-16T02:09:01.469Z,1018.47
2017-08-16T02:10:10.675Z,1018.47
2017-08-16T02:11:20.731Z,1018.41
2017-08-16T02:12:30.256Z,1018.44
2017-08-16T02:13:39.785Z,1018.43
2017-08-16T02:14:49.339Z,1018.5
2017-08-16T02:15:59.188Z,1018.47
2017-08-16T02:17:08.171Z,1018.54
2017-08-16T02:18:17.700Z,1018.48
2017-08-16T02:19:27.868Z,1018.5
2017-08-16T02:20:36.752Z,1018.51
2017-08-16T02:21:45.959Z,1018.5
2017-08-16T02:22:55.215Z,1018.51
2017-08-16T02:24:05.067Z,1018.48
2017-08-16T02:25:14.273Z,1018.44
2017-08-16T02:26:23.483Z,1018.47
2017-08-16T02:27:32.698Z,1018.47
2017-08-16T02:28:42.482Z,1018.5
2017-08-16T02:29:52.015Z,1018.55
2017-08-16T02:31:01.221Z,1018.55
2017-08-16T02:32:10.435Z,1018.58
2017-08-16T02:33:20.298Z,1018.55
2017-08-16T02:34:30.201Z,1018.55
2017-08-16T02:35:39.733Z,1018.6
2017-08-16T02:36:49.266Z,1018.55
2017-08-16T02:37:58.801Z,1018.58
2017-08-16T02:39:08.006Z,1018.63
2017-08-16T02:40:17.643Z,1018.62
2017-08-16T02:41:27.178Z,1018.6
2017-08-16T02:42:36.706Z,1018.56
2017-08-16T02:43:45.924Z,1018.59
2017-08-16T02:44:55.453Z,1018.59
2017-08-16T02:46:05.664Z,1018.6
2017-08-16T02:47:15.199Z,1018.59
2017-08-16T02:48:24.734Z,1018.65
2017-08-16T02:49:34.600Z,1018.67
2017-08-16T02:50:44.145Z,1018.7
2017-08-16T02:51:54.424Z,1018.74
2017-08-16T02:53:03.632Z,1018.75
2017-08-16T02:54:13.815Z,1018.7
2017-08-16T02:55:23.344Z,1018.69
2017-08-16T02:56:32.555Z,1018.69
2017-08-16T02:57:42.245Z,1018.66
2017-08-16T02:58:51.455Z,1018.61
2017-08-16T03:00:01.633Z,1018.62
2017-08-16T03:01:11.486Z,1018.59
2017-08-16T03:02:20.694Z,1018.62
2017-08-16T03:03:30.100Z,1018.63
2017-08-16T03:04:39.636Z,1018.62
2017-08-16T03:05:49.164Z,1018.58
2017-08-16T03:06:58.368Z,1018.57
2017-08-16T03:08:08.541Z,1018.59
2017-08-16T03:09:18.172Z,1018.58
2017-08-16T03:10:28.024Z,1018.57
2017-08-16T03:11:37.231Z,1018.62
2017-08-16T03:12:46.765Z,1018.6
2017-08-16T03:13:55.976Z,1018.66
2017-08-16T03:15:05.482Z,1018.63
2017-08-16T03:16:15.332Z,1018.67
2017-08-16T03:17:24.542Z,1018.66
2017-08-16T03:18:34.072Z,1018.65
2017-08-16T03:19:43.924Z,1018.65
2017-08-16T03:20:54.080Z,1018.72
2017-08-16T03:22:03.286Z,1018.71
2017-08-16T03:23:12.828Z,1018.71
2017-08-16T03:24:22.368Z,1018.71
2017-08-16T03:25:32.545Z,1018.68
2017-08-16T03:26:42.457Z,1018.69
2017-08-16T03:27:51.984Z,1018.71
2017-08-16T03:29:01.186Z,1018.73
2017-08-16T03:30:10.072Z,1018.71
2017-08-16T03:31:19.930Z,1018.68
2017-08-16T03:32:30.082Z,1018.75
2017-08-16T03:33:39.609Z,1018.75
2017-08-16T03:34:49.478Z,1018.74
2017-08-16T03:35:59.327Z,1018.72
2017-08-16T03:37:08.533Z,1018.76
2017-08-16T03:38:18.530Z,1018.78
2017-08-16T03:39:27.745Z,1018.78
2017-08-16T03:40:37.275Z,1018.87
2017-08-16T03:41:47.128Z,1018.88
2017-08-16T03:42:56.333Z,1018.88
2017-08-16T03:44:06.568Z,1018.88
2017-08-16T03:45:15.775Z,1018.88
2017-08-16T03:46:25.306Z,1018.9
2017-08-16T03:47:34.522Z,1018.92
2017-08-16T03:48:43.732Z,1018.93
2017-08-16T03:49:53.633Z,1018.92
2017-08-16T03:51:02.842Z,1018.96
2017-08-16T03:52:12.386Z,1018.97
2017-08-16T03:53:21.594Z,1019.03
2017-08-16T03:54:30.798Z,1019.04
2017-08-16T03:55:40.707Z,1019.06
2017-08-16T03:56:50.240Z,1019.09
2017-08-16T03:57:59.447Z,1019.15
2017-08-16T03:59:08.976Z,1019.18
2017-08-16T04:00:18.826Z,1019.21
2017-08-16T04:01:28.356Z,1019.25
2017-08-16T04:02:37.897Z,1019.28
2017-08-16T04:03:48.075Z,1019.31
2017-08-16T04:04:56.954Z,1019.28
2017-08-16T04:06:06.489Z,1019.34
2017-08-16T04:07:15.743Z,1019.3
2017-08-16T04:08:24.951Z,1019.33
2017-08-16T04:09:34.806Z,1019.41
2017-08-16T04:10:44.663Z,1019.46
2017-08-16T04:11:54.193Z,1019.49
2017-08-16T04:13:04.197Z,1019.54
2017-08-16T04:14:13.077Z,1019.55
2017-08-16T04:15:22.286Z,1019.53
2017-08-16T04:16:32.139Z,1019.52
2017-08-16T04:17:41.666Z,1019.53
2017-08-16T04:18:51.349Z,1019.52
2017-08-16T04:20:01.213Z,1019.53
2017-08-16T04:21:10.098Z,1019.54
2017-08-16T04:22:19.307Z,1019.51
2017-08-16T04:23:28.188Z,1019.56
2017-08-16T04:24:38.193Z,1019.54
2017-08-16T04:25:47.721Z,1019.55
2017-08-16T04:26:57.573Z,1019.55
2017-08-16T04:28:06.782Z,1019.58
2017-08-16T04:29:16.311Z,1019.59
2017-08-16T04:30:25.615Z,1019.63
2017-08-16T04:31:35.147Z,1019.63
2017-08-16T04:32:44.351Z,1019.66
2017-08-16T04:33:53.558Z,1019.67
2017-08-16T04:35:02.790Z,1019.69
2017-08-16T04:36:12.007Z,1019.72
2017-08-16T04:37:22.184Z,1019.78
2017-08-16T04:38:32.040Z,1019.77
2017-08-16T04:39:42.213Z,1019.83
2017-08-16T04:40:51.742Z,1019.83
2017-08-16T04:42:00.946Z,1019.86
2017-08-16T04:43:09.839Z,1019.88
2017-08-16T04:44:20.020Z,1019.91
2017-08-16T04:45:29.550Z,1019.92
2017-08-16T04:46:38.754Z,1019.93
2017-08-16T04:47:48.110Z,1019.93
2017-08-16T04:48:57.641Z,1019.92
2017-08-16T04:50:07.493Z,1019.93
2017-08-16T04:51:17.025Z,1019.94
2017-08-16T04:52:26.232Z,1019.89
2017-08-16T04:53:35.920Z,1019.91
2017-08-16T04:54:45.453Z,1019.87
2017-08-16T04:55:54.656Z,1019.88
2017-08-16T04:57:04.188Z,1019.93
2017-08-16T04:58:13.393Z,1019.95
2017-08-16T04:59:22.936Z,1019.98
2017-08-16T05:00:32.467Z,1020
2017-08-16T05:01:41.677Z,1020.01
2017-08-16T05:02:51.530Z,1020.02
2017-08-16T05:04:01.152Z,1020.06
2017-08-16T05:05:11.158Z,1020.02
2017-08-16T05:06:20.041Z,1020.11
2017-08-16T05:07:29.253Z,1020.11
2017-08-16T05:08:38.781Z,1020.13
2017-08-16T05:09:48.371Z,1020.13
2017-08-16T05:10:57.736Z,1020.17
2017-08-16T05:12:07.268Z,1020.16
2017-08-16T05:13:16.152Z,1020.14
2017-08-16T05:14:25.687Z,1020.2
2017-08-16T05:15:34.891Z,1020.25
2017-08-16T05:16:44.200Z,1020.27
2017-08-16T05:17:53.729Z,1020.27
2017-08-16T05:19:03.263Z,1020.29
2017-08-16T05:20:13.481Z,1020.33
2017-08-16T05:21:23.344Z,1020.3
2017-08-16T05:22:32.729Z,1020.34
2017-08-16T05:23:42.267Z,1020.37
2017-08-16T05:24:51.809Z,1020.41
2017-08-16T05:26:01.020Z,1020.44
2017-08-16T05:27:10.900Z,1020.43
2017-08-16T05:28:20.407Z,1020.49
2017-08-16T05:29:29.946Z,1020.51
2017-08-16T05:30:39.615Z,1020.48
2017-08-16T05:31:49.145Z,1020.5
2017-08-16T05:32:58.351Z,1020.53
2017-08-16T05:34:07.565Z,1020.52
2017-08-16T05:35:16.802Z,1020.53
2017-08-16T05:36:26.330Z,1020.5
2017-08-16T05:37:35.267Z,1020.53
2017-08-16T05:38:45.450Z,1020.55
2017-08-16T05:39:54.998Z,1020.56
2017-08-16T05:41:04.855Z,1020.58
2017-08-16T05:42:13.746Z,1020.59
2017-08-16T05:43:23.274Z,1020.59
2017-08-16T05:44:32.507Z,1020.66
2017-08-16T05:45:42.036Z,1020.68
2017-08-16T05:46:51.587Z,1020.65
2017-08-16T05:48:01.444Z,1020.68
2017-08-16T05:49:11.295Z,1020.73
2017-08-16T05:50:20.834Z,1020.69
2017-08-16T05:51:30.694Z,1020.69
2017-08-16T05:52:40.243Z,1020.7
2017-08-16T05:53:49.451Z,1020.7
2017-08-16T05:54:58.656Z,1020.75
2017-08-16T05:56:08.517Z,1020.81
2017-08-16T05:57:18.381Z,1020.84
2017-08-16T05:58:27.914Z,1020.85
2017-08-16T05:59:37.504Z,1020.88
2017-08-16T06:00:47.679Z,1020.92
2017-08-16T06:01:57.854Z,1021
2017-08-16T06:03:07.713Z,1021
2017-08-16T06:04:16.931Z,1021
2017-08-16T06:05:26.943Z,1020.98
2017-08-16T06:06:37.123Z,1021
2017-08-16T06:07:46.334Z,1021.01
2017-08-16T06:08:56.510Z,1021.01
2017-08-16T06:10:05.821Z,1021.06
2017-08-16T06:11:16.016Z,1021.06
2017-08-16T06:12:25.552Z,1021.08
2017-08-16T06:13:35.087Z,1021.11
2017-08-16T06:14:44.973Z,1021.19
2017-08-16T06:15:54.189Z,1021.16
2017-08-16T06:17:03.078Z,1021.18
2017-08-16T06:18:12.624Z,1021.16
2017-08-16T06:19:22.156Z,1021.19
2017-08-16T06:20:31.688Z,1021.2
2017-08-16T06:21:41.212Z,1021.24
2017-08-16T06:22:50.845Z,1021.19
2017-08-16T06:24:00.377Z,1021.23
2017-08-16T06:25:10.571Z,1021.22
2017-08-16T06:26:20.424Z,1021.29
2017-08-16T06:27:29.636Z,1021.3
2017-08-16T06:28:39.367Z,1021.3
2017-08-16T06:29:48.928Z,1021.31
2017-08-16T06:30:59.107Z,1021.29
2017-08-16T06:32:08.642Z,1021.26
2017-08-16T06:33:17.552Z,1021.25
2017-08-16T06:34:26.865Z,1021.25
2017-08-16T06:35:36.086Z,1021.28
2017-08-16T06:36:45.950Z,1021.32
2017-08-16T06:37:54.835Z,1021.33
2017-08-16T06:39:04.378Z,1021.31
2017-08-16T06:40:13.960Z,1021.33
2017-08-16T06:41:23.492Z,1021.36
2017-08-16T06:42:33.666Z,1021.38
2017-08-16T06:43:42.870Z,1021.37
2017-08-16T06:44:52.728Z,1021.35
2017-08-16T06:46:02.682Z,1021.4
2017-08-16T06:47:12.542Z,1021.41
2017-08-16T06:48:22.086Z,1021.44
2017-08-16T06:49:31.614Z,1021.46
2017-08-16T06:50:41.142Z,1021.42
2017-08-16T06:51:51.367Z,1021.47
2017-08-16T06:53:01.253Z,1021.5
2017-08-16T06:54:10.471Z,1021.54
2017-08-16T06:55:19.678Z,1021.52
2017-08-16T06:56:28.889Z,1021.5
2017-08-16T06:57:38.619Z,1021.52
2017-08-16T06:58:47.830Z,1021.52
2017-08-16T06:59:57.361Z,1021.45
2017-08-16T07:01:06.249Z,1021.49
2017-08-16T07:02:15.783Z,1021.49
2017-08-16T07:03:25.798Z,1021.55
2017-08-16T07:04:35.654Z,1021.54
2017-08-16T07:05:44.864Z,1021.54
2017-08-16T07:06:54.726Z,1021.48
2017-08-16T07:08:04.272Z,1021.53
2017-08-16T07:09:14.124Z,1021.53
2017-08-16T07:10:23.338Z,1021.54
2017-08-16T07:11:32.869Z,1021.54
2017-08-16T07:12:42.399Z,1021.53
2017-08-16T07:13:52.252Z,1021.54
2017-08-16T07:15:01.142Z,1021.5
2017-08-16T07:16:10.677Z,1021.52
2017-08-16T07:17:19.565Z,1021.53
2017-08-16T07:18:28.781Z,1021.53
2017-08-16T07:19:37.995Z,1021.52
2017-08-16T07:20:47.401Z,1021.55
2017-08-16T07:21:57.256Z,1021.6
2017-08-16T07:23:06.467Z,1021.55
2017-08-16T07:24:16.320Z,1021.57
2017-08-16T07:25:26.173Z,1021.58
2017-08-16T07:26:35.807Z,1021.57
2017-08-16T07:27:45.989Z,1021.58
2017-08-16T07:28:55.206Z,1021.6
2017-08-16T07:30:04.423Z,1021.62
2017-08-16T07:31:13.963Z,1021.59
2017-08-16T07:32:23.625Z,1021.66
2017-08-16T07:33:32.834Z,1021.6
2017-08-16T07:34:42.693Z,1021.65
2017-08-16T07:35:52.561Z,1021.67
2017-08-16T07:37:02.100Z,1021.66
2017-08-16T07:38:11.734Z,1021.64
2017-08-16T07:39:21.267Z,1021.68
2017-08-16T07:40:30.801Z,1021.7
2017-08-16T07:41:40.336Z,1021.71
2017-08-16T07:42:49.865Z,1021.75
2017-08-16T07:43:59.876Z,1021.73
2017-08-16T07:45:09.411Z,1021.71
2017-08-16T07:46:18.620Z,1021.67
2017-08-16T07:47:28.479Z,1021.69
2017-08-16T07:48:38.010Z,1021.72
2017-08-16T07:49:48.168Z,1021.72
2017-08-16T07:50:57.702Z,1021.75
2017-08-16T07:52:07.229Z,1021.76
2017-08-16T07:53:16.759Z,1021.77
2017-08-16T07:54:25.978Z,1021.8
2017-08-16T07:55:35.011Z,1021.75
2017-08-16T07:56:44.215Z,1021.79
2017-08-16T07:57:53.743Z,1021.76
2017-08-16T07:59:02.952Z,1021.77
2017-08-16T08:00:13.460Z,1021.81
2017-08-16T08:01:23.465Z,1021.82
2017-08-16T08:02:33.649Z,1021.87
2017-08-16T08:03:43.826Z,1021.89
2017-08-16T08:04:53.357Z,1021.94
2017-08-16T08:06:02.908Z,1021.94
2017-08-16T08:07:12.922Z,1021.93
2017-08-16T08:08:22.127Z,1021.96
2017-08-16T08:09:31.341Z,1021.97
2017-08-16T08:10:40.228Z,1022.04
2017-08-16T08:11:49.758Z,1022.01
2017-08-16T08:12:59.117Z,1022.05
2017-08-16T08:14:08.983Z,1022.04
2017-08-16T08:15:19.187Z,1022.04
2017-08-16T08:16:29.376Z,1022.05
2017-08-16T08:17:39.555Z,1022.05
2017-08-16T08:18:49.384Z,1022.06
2017-08-16T08:19:58.272Z,1022.08
2017-08-16T08:21:08.129Z,1022.1
2017-08-16T08:22:17.662Z,1022.12
2017-08-16T08:23:26.870Z,1022.09
2017-08-16T08:24:36.554Z,1022.11
2017-08-16T08:25:46.735Z,1022.08
2017-08-16T08:26:56.602Z,1022.11
2017-08-16T08:28:06.157Z,1022.11
2017-08-16T08:29:16.339Z,1022.09
2017-08-16T08:30:25.702Z,1022.1
2017-08-16T08:31:34.910Z,1022.14
2017-08-16T08:32:44.448Z,1022.11
2017-08-16T08:33:53.980Z,1022.13
2017-08-16T08:35:03.514Z,1022.15
2017-08-16T08:36:13.193Z,1022.15
2017-08-16T08:37:22.401Z,1022.12
2017-08-16T08:38:32.268Z,1022.13
2017-08-16T08:39:41.496Z,1022.15
2017-08-16T08:40:51.035Z,1022.15
2017-08-16T08:42:01.042Z,1022.12
2017-08-16T08:43:09.930Z,1022.16
2017-08-16T08:44:19.462Z,1022.12
2017-08-16T08:45:28.993Z,1022.13
2017-08-16T08:46:38.852Z,1022.12
2017-08-16T08:47:47.948Z,1022.16
2017-08-16T08:48:57.482Z,1022.19
2017-08-16T08:50:06.691Z,1022.16
2017-08-16T08:51:16.546Z,1022.16
2017-08-16T08:52:26.078Z,1022.19
2017-08-16T08:53:35.392Z,1022.24
2017-08-16T08:54:45.249Z,1022.18
2017-08-16T08:55:54.836Z,1022.22
2017-08-16T08:57:04.692Z,1022.22
2017-08-16T08:58:14.552Z,1022.17
2017-08-16T08:59:24.513Z,1022.21
2017-08-16T09:00:33.724Z,1022.18
2017-08-16T09:01:43.310Z,1022.21
2017-08-16T09:02:53.500Z,1022.22
2017-08-16T09:04:03.032Z,1022.21
2017-08-16T09:05:13.209Z,1022.22
2017-08-16T09:06:22.759Z,1022.21
2017-08-16T09:07:31.646Z,1022.21
2017-08-16T09:08:41.177Z,1022.23
2017-08-16T09:09:50.709Z,1022.21
2017-08-16T09:11:00.615Z,1022.23
2017-08-16T09:12:09.826Z,1022.23
2017-08-16T09:13:19.033Z,1022.27
2017-08-16T09:14:28.567Z,1022.29
2017-08-16T09:15:37.775Z,1022.27
2017-08-16T09:16:46.831Z,1022.24
2017-08-16T09:17:55.718Z,1022.27
2017-08-16T09:19:05.259Z,1022.29
2017-08-16T09:20:14.791Z,1022.32
2017-08-16T09:21:24.327Z,1022.31
2017-08-16T09:22:33.922Z,1022.34
2017-08-16T09:23:43.130Z,1022.3
2017-08-16T09:24:52.661Z,1022.3
2017-08-16T09:26:02.196Z,1022.27
2017-08-16T09:27:11.731Z,1022.24
2017-08-16T09:28:21.741Z,1022.36
2017-08-16T09:29:31.597Z,1022.34
2017-08-16T09:30:40.486Z,1022.34
2017-08-16T09:31:50.344Z,1022.39
2017-08-16T09:32:59.589Z,1022.37
2017-08-16T09:34:09.672Z,1022.41
2017-08-16T09:35:19.213Z,1022.4
2017-08-16T09:36:29.392Z,1022.35
2017-08-16T09:37:38.606Z,1022.38
2017-08-16T09:38:48.463Z,1022.38
2017-08-16T09:39:57.823Z,1022.36
2017-08-16T09:41:07.358Z,1022.43
2017-08-16T09:42:16.893Z,1022.4
2017-08-16T09:43:26.423Z,1022.42
2017-08-16T09:44:35.955Z,1022.46
2017-08-16T09:45:45.315Z,1022.38
2017-08-16T09:46:54.530Z,1022.37
2017-08-16T09:48:04.396Z,1022.42
2017-08-16T09:49:13.608Z,1022.44
2017-08-16T09:50:23.137Z,1022.44
2017-08-16T09:51:32.396Z,1022.47
2017-08-16T09:52:42.250Z,1022.47
2017-08-16T09:53:51.137Z,1022.49
2017-08-16T09:55:00.022Z,1022.49
2017-08-16T09:56:09.555Z,1022.45
2017-08-16T09:57:19.561Z,1022.45
2017-08-16T09:58:29.429Z,1022.41
2017-08-16T09:59:38.639Z,1022.41
2017-08-16T10:00:48.498Z,1022.47
2017-08-16T10:01:58.035Z,1022.43
2017-08-16T10:03:07.734Z,1022.42
2017-08-16T10:04:17.606Z,1022.42
2017-08-16T10:05:27.462Z,1022.47
2017-08-16T10:06:36.674Z,1022.43
2017-08-16T10:07:46.208Z,1022.44
2017-08-16T10:08:55.470Z,1022.46
2017-08-16T10:10:04.681Z,1022.54
2017-08-16T10:11:13.892Z,1022.51
2017-08-16T10:12:23.423Z,1022.5
2017-08-16T10:13:32.953Z,1022.5
2017-08-16T10:14:43.286Z,1022.48
2017-08-16T10:15:52.496Z,1022.47
2017-08-16T10:17:01.708Z,1022.51
2017-08-16T10:18:10.602Z,1022.5
2017-08-16T10:19:19.496Z,1022.49
2017-08-16T10:20:29.681Z,1022.5
2017-08-16T10:21:39.541Z,1022.49
2017-08-16T10:22:48.754Z,1022.51
2017-08-16T10:23:57.965Z,1022.46
2017-08-16T10:25:07.825Z,1022.49
2017-08-16T10:26:17.199Z,1022.51
2017-08-16T10:27:26.730Z,1022.55
2017-08-16T10:28:35.940Z,1022.49
2017-08-16T10:29:45.474Z,1022.48
2017-08-16T10:30:55.010Z,1022.46
2017-08-16T10:32:04.474Z,1022.47
2017-08-16T10:33:14.008Z,1022.47
2017-08-16T10:34:23.555Z,1022.4
2017-08-16T10:35:33.089Z,1022.52
2017-08-16T10:36:42.298Z,1022.47
2017-08-16T10:37:51.881Z,1022.52
2017-08-16T10:39:01.417Z,1022.5
2017-08-16T10:40:10.950Z,1022.48
2017-08-16T10:41:20.487Z,1022.5
2017-08-16T10:42:29.696Z,1022.53
2017-08-16T10:43:39.281Z,1022.54
2017-08-16T10:44:48.814Z,1022.56
2017-08-16T10:45:57.699Z,1022.57
2017-08-16T10:47:06.908Z,1022.52
2017-08-16T10:48:16.120Z,1022.55
2017-08-16T10:49:25.062Z,1022.52
2017-08-16T10:50:34.598Z,1022.52
2017-08-16T10:51:43.816Z,1022.56
2017-08-16T10:52:53.357Z,1022.56
2017-08-16T10:54:02.890Z,1022.6
2017-08-16T10:55:12.202Z,1022.52
2017-08-16T10:56:21.734Z,1022.56
2017-08-16T10:57:31.271Z,1022.53
2017-08-16T10:58:40.827Z,1022.51
2017-08-16T10:59:50.150Z,1022.54
2017-08-16T11:01:00.614Z,1022.5
2017-08-16T11:02:11.065Z,1022.53
2017-08-16T11:03:20.946Z,1022.53
2017-08-16T11:04:30.785Z,1022.52
2017-08-16T11:05:40.280Z,1022.47
2017-08-16T11:06:50.085Z,1022.47
2017-08-16T11:08:00.332Z,1022.46
2017-08-16T11:09:10.285Z,1022.47
2017-08-16T11:10:20.230Z,1022.56
2017-08-16T11:11:29.782Z,1022.5
2017-08-16T11:12:39.611Z,1022.44
2017-08-16T11:13:50.515Z,1022.51
2017-08-16T11:15:00.067Z,1022.48
2017-08-16T11:16:09.321Z,1022.48
2017-08-16T11:17:19.190Z,1022.48
2017-08-16T11:20:09.487Z,1022.53
2017-08-16T11:21:18.760Z,1022.56
2017-08-16T11:22:28.861Z,1022.58
2017-08-16T11:23:38.780Z,1022.62
2017-08-16T11:24:47.731Z,1022.55
2017-08-16T11:25:58.231Z,1022.59
2017-08-16T11:27:08.649Z,1022.57
2017-08-16T11:28:18.011Z,1022.52
2017-08-16T11:29:27.621Z,1022.53
2017-08-16T11:30:36.571Z,1022.52
2017-08-16T11:31:46.439Z,1022.5
2017-08-16T11:32:56.208Z,1022.5
2017-08-16T11:34:06.418Z,1022.51
2017-08-16T11:36:54.729Z,1022.52
2017-08-16T11:38:05.588Z,1022.51
2017-08-16T11:39:14.597Z,1022.59
2017-08-16T11:40:23.977Z,1022.59
2017-08-16T11:41:33.591Z,1022.57
2017-08-16T11:42:43.974Z,1022.57
2017-08-16T11:43:55.115Z,1022.56
2017-08-16T11:45:05.398Z,1022.54
2017-08-16T11:46:14.695Z,1022.55
2017-08-16T11:47:25.631Z,1022.59
2017-08-16T11:48:36.505Z,1022.59
2017-08-16T11:49:48.531Z,1022.62
2017-08-16T11:50:59.773Z,1022.56
2017-08-16T11:52:09.830Z,1022.56
2017-08-16T11:53:19.126Z,1022.55
2017-08-16T11:54:28.831Z,1022.52
2017-08-16T11:55:40.151Z,1022.58
2017-08-16T11:56:50.018Z,1022.55
2017-08-16T11:58:00.330Z,1022.56
2017-08-16T11:59:09.582Z,1022.53
2017-08-16T12:00:19.172Z,1022.55
2017-08-16T12:01:28.332Z,1022.55
2017-08-16T12:02:37.278Z,1022.54
2017-08-16T12:03:47.710Z,1022.49
2017-08-16T12:04:57.313Z,1022.53
2017-08-16T12:06:07.571Z,1022.53
2017-08-16T12:07:17.264Z,1022.56
2017-08-16T12:08:26.811Z,1022.55
2017-08-16T12:09:36.139Z,1022.56
2017-08-16T12:10:45.124Z,1022.53
2017-08-16T12:11:56.701Z,1022.51
2017-08-16T12:13:06.391Z,1022.52
2017-08-16T12:14:16.745Z,1022.5
2017-08-16T12:15:26.332Z,1022.5
2017-08-16T12:16:35.826Z,1022.52
2017-08-16T12:17:45.387Z,1022.48
2017-08-16T12:18:54.610Z,1022.51
2017-08-16T12:20:03.830Z,1022.48
2017-08-16T12:21:13.995Z,1022.5
2017-08-16T12:22:23.536Z,1022.55
2017-08-16T12:23:33.400Z,1022.54
2017-08-16T12:24:43.278Z,1022.55
2017-08-16T12:25:52.839Z,1022.52
2017-08-16T12:27:02.473Z,1022.52
2017-08-16T12:28:12.335Z,1022.53
2017-08-16T12:29:21.221Z,1022.57
2017-08-16T12:30:31.070Z,1022.54
2017-08-16T12:31:39.973Z,1022.54
2017-08-16T12:32:49.663Z,1022.54
2017-08-16T12:33:59.526Z,1022.55
2017-08-16T12:35:09.382Z,1022.49
2017-08-16T12:36:19.238Z,1022.52
2017-08-16T12:37:28.459Z,1022.57
2017-08-16T12:38:38.145Z,1022.5
2017-08-16T12:39:47.371Z,1022.56
2017-08-16T12:40:56.921Z,1022.55
2017-08-16T12:42:06.459Z,1022.55
2017-08-16T12:43:15.996Z,1022.57
2017-08-16T12:44:25.260Z,1022.5
2017-08-16T12:45:35.124Z,1022.48
2017-08-16T12:46:44.341Z,1022.46
2017-08-16T12:47:53.880Z,1022.5
2017-08-16T12:49:03.414Z,1022.48
2017-08-16T12:50:13.803Z,1022.52
2017-08-16T12:51:23.014Z,1022.49
2017-08-16T12:52:32.231Z,1022.44
2017-08-16T12:53:42.095Z,1022.39
2017-08-16T12:54:51.640Z,1022.38
2017-08-16T12:56:01.003Z,1022.36
2017-08-16T12:57:10.537Z,1022.41
2017-08-16T12:58:20.079Z,1022.46
2017-08-16T12:59:28.975Z,1022.47
2017-08-16T13:00:37.868Z,1022.48
2017-08-16T13:01:47.234Z,1022.46
2017-08-16T13:02:56.804Z,1022.52
2017-08-16T13:04:06.357Z,1022.52
2017-08-16T13:05:15.573Z,1022.49
2017-08-16T13:06:25.115Z,1022.48
2017-08-16T13:07:34.636Z,1022.48
2017-08-16T13:08:44.203Z,1022.43
2017-08-16T13:09:53.435Z,1022.45
2017-08-16T13:11:02.977Z,1022.5
2017-08-16T13:12:12.515Z,1022.46
2017-08-16T13:13:21.559Z,1022.52
2017-08-16T13:14:30.782Z,1022.53
2017-08-16T13:15:39.680Z,1022.53
2017-08-16T13:16:49.221Z,1022.54
2017-08-16T13:17:58.118Z,1022.55
2017-08-16T13:19:07.677Z,1022.54
2017-08-16T13:20:16.941Z,1022.44
2017-08-16T13:21:26.499Z,1022.45
2017-08-16T13:22:35.712Z,1022.43
2017-08-16T13:23:44.608Z,1022.4
2017-08-16T13:24:54.204Z,1022.48
2017-08-16T13:26:03.761Z,1022.5
2017-08-16T13:27:13.259Z,1022.51
2017-08-16T13:28:23.150Z,1022.42
2017-08-16T13:29:32.708Z,1022.43
2017-08-16T13:30:42.597Z,1022.5
2017-08-16T13:31:51.818Z,1022.45
2017-08-16T13:33:02.003Z,1022.46
2017-08-16T13:34:11.553Z,1022.47
2017-08-16T13:35:21.413Z,1022.4
2017-08-16T13:36:30.785Z,1022.36
2017-08-16T13:37:40.346Z,1022.38
2017-08-16T13:38:49.904Z,1022.31
2017-08-16T13:39:59.131Z,1022.37
2017-08-16T13:41:08.355Z,1022.32
2017-08-16T13:42:18.299Z,1022.29
2017-08-16T13:43:27.851Z,1022.25
2017-08-16T13:44:37.072Z,1022.24
2017-08-16T13:45:47.260Z,1022.25
2017-08-16T13:46:56.156Z,1022.28
2017-08-16T13:48:05.754Z,1022.33
2017-08-16T13:49:15.298Z,1022.43
2017-08-16T13:50:25.192Z,1022.44
2017-08-16T13:51:34.733Z,1022.49
2017-08-16T13:52:44.007Z,1022.45
2017-08-16T13:53:53.571Z,1022.44
2017-08-16T13:55:03.117Z,1022.34
2017-08-16T13:56:12.665Z,1022.41
2017-08-16T13:57:22.536Z,1022.46
2017-08-16T13:58:32.098Z,1022.48
2017-08-16T13:59:41.427Z,1022.42
2017-08-16T14:00:50.332Z,1022.42
2017-08-16T14:02:00.201Z,1022.41
2017-08-16T14:03:09.429Z,1022.55
2017-08-16T14:04:18.655Z,1022.6
2017-08-16T14:05:27.894Z,1022.68
2017-08-16T14:06:38.112Z,1022.79
2017-08-16T14:07:48.335Z,1023.48